createdAt,value
2023-03-06T00:01:48.972Z,3.42
2023-03-06T00:06:51.102Z,3.65
2023-03-06T00:11:52.722Z,3.58
2023-03-06T00:16:55.900Z,4.13
2023-03-06T00:21:57.688Z,3.67
2023-03-06T00:26:59.347Z,4.20
2023-03-06T00:32:01.161Z,3.72
2023-03-06T00:37:02.868Z,3.80
2023-03-06T00:42:04.794Z,4.28
2023-03-06T00:47:06.613Z,3.70
2023-03-06T00:52:08.298Z,3.75
2023-03-06T00:57:10.156Z,4.25
2023-03-06T01:02:11.969Z,4.20
2023-03-06T01:07:13.688Z,4.30
2023-03-06T01:12:15.602Z,4.82
2023-03-06T01:17:17.794Z,5.00
2023-03-06T01:22:19.409Z,5.00
2023-03-06T01:27:21.161Z,4.90
2023-03-06T01:32:22.859Z,4.90
2023-03-06T01:37:24.551Z,5.55
2023-03-06T01:42:26.183Z,5.25
2023-03-06T01:47:28.204Z,5.45
2023-03-06T01:52:35.524Z,5.60
2023-03-06T02:03:14.533Z,6.07
2023-03-06T02:08:19.437Z,6.10
2023-03-06T02:13:21.248Z,6.05
2023-03-06T02:18:27.550Z,6.22
2023-03-06T02:23:57.155Z,6.43
2023-03-06T02:28:59.343Z,6.05
2023-03-06T02:34:15.874Z,6.05
2023-03-06T02:39:22.276Z,6.05
2023-03-06T02:44:25.989Z,6.37
2023-03-06T02:49:27.745Z,5.90
2023-03-06T02:54:29.589Z,5.80
2023-03-06T02:59:31.269Z,6.85
2023-03-06T03:04:34.382Z,7.05
2023-03-06T03:09:37.298Z,6.82
2023-03-06T03:14:39.501Z,6.85
2023-03-06T03:19:41.450Z,6.70
2023-03-06T03:24:43.492Z,7.35
2023-03-06T03:29:45.318Z,7.18
2023-03-06T03:34:47.293Z,7.57
2023-03-06T03:39:49.052Z,8.23
2023-03-06T03:44:51.607Z,7.57
2023-03-06T03:49:55.782Z,7.32
2023-03-06T03:54:58.514Z,7.28
2023-03-06T04:00:01.892Z,7.35
2023-03-06T04:05:29.563Z,8.02
2023-03-06T04:10:32.697Z,7.53
2023-03-06T04:15:34.385Z,7.70
2023-03-06T04:20:36.730Z,7.28
2023-03-06T04:25:39.543Z,7.93
2023-03-06T04:30:43.785Z,7.07
2023-03-06T04:35:45.489Z,7.68
2023-03-06T04:40:52.987Z,7.22
2023-03-06T04:45:54.708Z,7.97
2023-03-06T04:50:56.368Z,7.72
2023-03-06T04:55:58.075Z,7.18
2023-03-06T05:00:59.747Z,7.68
2023-03-06T05:06:01.917Z,7.97
2023-03-06T05:11:03.667Z,8.10
2023-03-06T05:16:07.007Z,8.43
2023-03-06T05:21:09.334Z,8.10
2023-03-06T05:26:12.714Z,7.85
2023-03-06T05:31:14.538Z,9.60
2023-03-06T05:36:16.176Z,9.05
2023-03-06T05:41:17.978Z,9.10
2023-03-06T05:46:21.030Z,9.75
2023-03-06T05:51:23.077Z,9.27
2023-03-06T05:56:24.708Z,8.48
2023-03-06T06:01:28.591Z,9.02
2023-03-06T06:06:30.783Z,10.38
2023-03-06T06:11:33.287Z,9.57
2023-03-06T06:16:35.489Z,10.43
2023-03-06T06:21:39.254Z,9.93
2023-03-06T06:26:42.242Z,9.98
2023-03-06T06:31:44.830Z,9.38
2023-03-06T06:36:47.460Z,10.60
2023-03-06T06:42:02.728Z,9.70
2023-03-06T06:47:27.338Z,10.60
2023-03-06T06:52:29.343Z,10.13
2023-03-06T06:57:31.433Z,10.30
2023-03-06T07:02:36.325Z,10.25
2023-03-06T07:07:38.639Z,10.02
2023-03-06T07:12:40.711Z,11.13
2023-03-06T07:17:42.655Z,11.93
2023-03-06T07:22:51.410Z,10.07
2023-03-06T07:27:55.150Z,11.23
2023-03-06T07:32:58.792Z,10.85
2023-03-06T07:38:00.831Z,12.43
2023-03-06T07:43:18.268Z,10.52
2023-03-06T07:48:27.724Z,9.68
2023-03-06T07:53:29.410Z,10.13
2023-03-06T07:58:31.131Z,9.98
2023-03-06T08:03:33.489Z,10.43
2023-03-06T08:08:36.819Z,9.85
2023-03-06T08:13:39.041Z,9.27
2023-03-06T08:18:40.929Z,9.60
2023-03-06T08:23:43.184Z,9.23
2023-03-06T08:28:44.898Z,9.95
2023-03-06T08:33:47.121Z,10.07
2023-03-06T08:38:48.803Z,9.10
2023-03-06T08:43:50.938Z,9.10
2023-03-06T08:48:52.610Z,10.90
2023-03-06T08:53:54.864Z,10.77
2023-03-06T08:58:58.380Z,9.45
2023-03-06T09:04:02.157Z,10.57
2023-03-06T09:09:05.138Z,11.18
2023-03-06T09:14:06.814Z,12.55
2023-03-06T09:19:08.480Z,10.93
2023-03-06T09:24:10.125Z,11.68
2023-03-06T09:29:12.638Z,11.98
2023-03-06T09:34:14.354Z,12.18
2023-03-06T09:39:16.065Z,12.23
2023-03-06T09:44:22.708Z,13.07
2023-03-06T09:49:43.126Z,12.52
2023-03-06T09:54:47.931Z,13.85
2023-03-06T09:59:54.592Z,12.45
2023-03-06T10:05:01.128Z,12.38
2023-03-06T10:10:06.793Z,13.45
2023-03-06T10:15:26.742Z,15.27
2023-03-06T10:20:36.473Z,12.82
2023-03-06T10:26:01.195Z,13.93
2023-03-06T10:31:26.007Z,14.02
2023-03-06T10:36:29.094Z,14.50
2023-03-06T10:41:32.817Z,14.13
2023-03-06T10:46:42.895Z,14.48
2023-03-06T10:52:06.934Z,14.10
2023-03-06T10:57:32.766Z,15.50
2023-03-06T11:02:41.029Z,15.63
2023-03-06T11:08:00.271Z,14.00
2023-03-06T11:13:08.471Z,15.27
2023-03-06T11:18:10.027Z,17.25
2023-03-06T11:23:36.161Z,15.40
2023-03-06T11:28:40.771Z,15.60
2023-03-06T11:33:52.888Z,16.98
2023-03-06T11:38:54.978Z,17.10
2023-03-06T11:44:19.942Z,17.48
2023-03-06T11:49:30.889Z,17.10
2023-03-06T11:54:33.640Z,16.63
2023-03-06T11:59:56.554Z,18.00
2023-03-06T12:05:10.642Z,17.55
2023-03-06T12:10:24.485Z,18.70
2023-03-06T12:15:44.462Z,16.17
2023-03-06T12:20:48.901Z,17.33
2023-03-06T12:26:02.320Z,17.08
2023-03-06T12:31:24.890Z,16.08
2023-03-06T12:36:43.131Z,16.67
2023-03-06T12:42:23.442Z,15.48
2023-03-06T12:47:28.822Z,17.95
2023-03-06T12:52:33.146Z,14.73
2023-03-06T12:57:34.987Z,15.90
2023-03-06T13:02:48.912Z,15.15
2023-03-06T13:07:57.173Z,14.80
2023-03-06T13:13:05.085Z,17.05
2023-03-06T13:18:21.873Z,18.77
2023-03-06T13:23:32.550Z,17.00
2023-03-06T13:28:50.606Z,18.27
2023-03-06T13:33:56.282Z,20.33
2023-03-06T13:39:08.739Z,16.45
2023-03-06T13:44:40.277Z,20.98
2023-03-06T13:49:46.357Z,19.88
2023-03-06T13:54:56.819Z,18.60
2023-03-06T14:00:19.205Z,18.33
2023-03-06T14:05:21.758Z,18.58
2023-03-06T14:10:25.714Z,17.60
2023-03-06T14:15:47.861Z,17.27
2023-03-06T14:20:55.095Z,16.48
2023-03-06T14:31:19.654Z,16.30
2023-03-06T14:36:34.037Z,15.98
2023-03-06T14:41:36.632Z,15.32
2023-03-06T14:46:38.422Z,14.30
2023-03-06T14:52:00.550Z,14.48
2023-03-06T14:57:15.277Z,14.68
2023-03-06T15:02:23.731Z,13.15
2023-03-06T15:07:29.238Z,12.40
2023-03-06T15:12:35.905Z,11.45
2023-03-06T15:17:45.246Z,11.18
2023-03-06T15:22:50.821Z,10.57
2023-03-06T15:28:20.275Z,10.30
2023-03-06T15:33:28.514Z,10.68
2023-03-06T15:38:43.137Z,9.20
2023-03-06T15:43:45.029Z,10.23
2023-03-06T15:48:54.848Z,10.55
2023-03-06T15:54:09.778Z,10.98
2023-03-06T15:59:23.546Z,12.23
2023-03-06T16:04:25.503Z,10.80
2023-03-06T16:09:27.434Z,11.57
2023-03-06T16:14:29.471Z,8.68
2023-03-06T16:19:31.153Z,9.00
2023-03-06T16:24:33.153Z,9.13
2023-03-06T16:29:35.157Z,9.68
2023-03-06T16:34:36.841Z,9.45
2023-03-06T16:39:38.678Z,10.80
2023-03-06T16:44:40.862Z,9.90
2023-03-06T16:49:42.546Z,10.38
2023-03-06T16:54:44.759Z,10.52
2023-03-06T16:59:47.027Z,10.57
2023-03-06T17:04:49.102Z,10.30
2023-03-06T17:09:50.801Z,8.85
2023-03-06T17:14:53.166Z,10.70
2023-03-06T17:19:55.001Z,8.90
2023-03-06T17:24:56.834Z,9.13
2023-03-06T17:29:59.127Z,9.43
2023-03-06T17:35:01.491Z,10.63
2023-03-06T17:40:03.660Z,13.02
2023-03-06T17:45:06.296Z,11.77
2023-03-06T17:50:09.032Z,11.88
2023-03-06T17:55:10.996Z,11.18
2023-03-06T18:00:13.378Z,11.88
2023-03-06T18:05:18.131Z,11.98
2023-03-06T18:10:20.136Z,11.88
2023-03-06T18:15:22.274Z,11.32
2023-03-06T18:20:24.301Z,11.65
2023-03-06T18:25:26.111Z,11.27
2023-03-06T18:30:27.827Z,11.10
2023-03-06T18:35:29.476Z,11.50
2023-03-06T18:40:31.169Z,11.52
2023-03-06T18:45:33.510Z,11.48
2023-03-06T18:50:35.287Z,12.95
2023-03-06T18:55:36.901Z,12.43
2023-03-06T19:00:39.007Z,14.57
2023-03-06T19:05:45.866Z,12.18
2023-03-06T19:10:47.606Z,12.88
2023-03-06T19:15:49.350Z,12.50
2023-03-06T19:20:51.229Z,12.23
2023-03-06T19:25:57.485Z,12.18
2023-03-06T19:30:59.234Z,12.30
2023-03-06T19:36:02.366Z,13.20
2023-03-06T19:41:04.473Z,12.13
2023-03-06T19:46:06.702Z,11.95
2023-03-06T19:51:08.524Z,12.23
2023-03-06T19:56:14.757Z,13.10
2023-03-06T20:01:19.124Z,12.70
2023-03-06T20:06:20.873Z,12.05
2023-03-06T20:11:25.281Z,12.23
2023-03-06T20:16:28.203Z,13.23
2023-03-06T20:21:32.275Z,14.05
2023-03-06T20:26:34.879Z,13.90
2023-03-06T20:31:36.933Z,14.57
2023-03-06T20:36:40.454Z,13.85
2023-03-06T20:41:43.121Z,13.57
2023-03-06T20:46:45.443Z,13.95
2023-03-06T20:51:47.328Z,15.38
2023-03-06T20:56:50.192Z,14.55
2023-03-06T21:01:52.166Z,15.68
2023-03-06T21:06:54.318Z,15.48
2023-03-06T21:11:55.998Z,15.27
2023-03-06T21:16:57.713Z,16.60
2023-03-06T21:21:59.498Z,16.92
2023-03-06T21:27:01.222Z,17.58
2023-03-06T21:32:02.944Z,17.70
2023-03-06T21:37:04.606Z,17.05
2023-03-06T21:42:06.942Z,17.42
2023-03-06T21:47:08.592Z,19.08
2023-03-06T21:52:10.259Z,16.98
2023-03-06T21:57:11.926Z,16.85
2023-03-06T22:02:13.583Z,17.95
2023-03-06T22:07:15.772Z,16.52
2023-03-06T22:12:17.460Z,16.60
2023-03-06T22:17:19.101Z,17.33
2023-03-06T22:22:20.818Z,17.90
2023-03-06T22:27:22.818Z,16.85
2023-03-06T22:32:24.582Z,16.58
2023-03-06T22:37:26.355Z,17.75
2023-03-06T22:42:28.645Z,17.27
2023-03-06T22:47:30.255Z,16.15
2023-03-06T22:52:33.028Z,16.58
2023-03-06T22:57:34.864Z,17.17
2023-03-06T23:02:36.548Z,16.92
2023-03-06T23:07:38.275Z,16.45
2023-03-06T23:12:41.664Z,17.77
2023-03-06T23:18:02.098Z,16.80
2023-03-06T23:23:25.108Z,18.08
2023-03-06T23:28:27.907Z,18.95
2023-03-06T23:33:29.939Z,18.33
2023-03-06T23:38:32.001Z,17.45
2023-03-06T23:43:34.499Z,17.60
2023-03-06T23:48:38.101Z,17.90
2023-03-06T23:53:39.793Z,18.25
2023-03-06T23:58:41.527Z,18.38
